Time;durP1;ratioP1;P1;durP2;ratioP2;P2;SDS_P1;SDS_P2;PMS_P1;PMS_P2;Temp;Humidity;BMP_temperature;BMP_pressure;BME280_temperature;BME280_humidity;BME280_pressure;Samples;Min_cycle;Max_cycle;Signal;HPM_P1;HPM_P2
2021/05/21 00:02:19;;;;;;;14.02;5.82;;;;;;;;;;5011307;28;20026;-62
2021/05/21 00:04:44;;;;;;;12.48;6.15;;;;;;;;;;5013689;28;20038;-60
2021/05/21 00:07:10;;;;;;;12.80;6.63;;;;;;;;;;5008694;28;20497;-62
2021/05/21 00:09:36;;;;;;;13.07;6.28;;;;;;;;;;4990265;28;20025;-61
2021/05/21 00:12:02;;;;;;;15.15;6.50;;;;;;;;;;4992625;28;20063;-62
2021/05/21 00:14:28;;;;;;;11.75;5.75;;;;;;;;;;5088718;22;20039;-62
2021/05/21 00:16:54;;;;;;;13.45;5.80;;;;;;;;;;5071949;28;20020;-61
2021/05/21 00:19:21;;;;;;;12.68;5.95;;;;;;;;;;5072207;28;20024;-63
2021/05/21 00:21:46;;;;;;;12.45;5.93;;;;;;;;;;5072067;28;20034;-63
2021/05/21 00:24:12;;;;;;;13.23;6.55;;;;;;;;;;5090461;28;20016;-62
2021/05/21 00:26:39;;;;;;;13.80;5.65;;;;;;;;;;5090599;28;20016;-63
2021/05/21 00:29:06;;;;;;;12.43;5.60;;;;;;;;;;5089772;28;20081;-62
2021/05/21 00:31:33;;;;;;;12.23;5.40;;;;;;;;;;5090490;28;20028;-62
2021/05/21 00:33:59;;;;;;;16.50;6.15;;;;;;;;;;5090401;28;20042;-62
2021/05/21 00:36:25;;;;;;;12.57;5.90;;;;;;;;;;5072170;28;20035;-62
2021/05/21 00:38:51;;;;;;;13.95;5.60;;;;;;;;;;5071417;28;20070;-61
2021/05/21 00:41:21;;;;;;;12.02;5.72;;;;;;;;;;5091537;28;20056;-62
2021/05/21 00:43:47;;;;;;;14.48;5.57;;;;;;;;;;5073620;28;20032;-62
2021/05/21 00:46:13;;;;;;;12.30;5.75;;;;;;;;;;5073793;28;20026;-62
2021/05/21 00:48:39;;;;;;;11.23;5.72;;;;;;;;;;5073525;28;20031;-57
2021/05/21 00:51:05;;;;;;;12.13;5.60;;;;;;;;;;5092403;28;20024;-63
2021/05/21 00:53:32;;;;;;;13.75;5.93;;;;;;;;;;5073971;28;20024;-62
2021/05/21 00:55:59;;;;;;;12.50;5.55;;;;;;;;;;5074744;28;20475;-63
2021/05/21 00:58:26;;;;;;;12.60;5.40;;;;;;;;;;5078415;28;20548;-62
2021/05/21 01:00:53;;;;;;;12.48;5.70;;;;;;;;;;5095600;28;20028;-63
2021/05/21 01:03:19;;;;;;;12.48;5.78;;;;;;;;;;5096354;28;20027;-62
2021/05/21 01:05:45;;;;;;;13.63;5.63;;;;;;;;;;5096085;28;20081;-62
2021/05/21 01:08:11;;;;;;;11.32;5.03;;;;;;;;;;5096447;28;20023;-63
2021/05/21 01:10:37;;;;;;;12.20;5.20;;;;;;;;;;5095493;28;20024;-61
2021/05/21 01:13:03;;;;;;;10.88;5.13;;;;;;;;;;5096025;28;20438;-63
2021/05/21 01:15:29;;;;;;;10.93;5.03;;;;;;;;;;5077876;28;20051;-63
2021/05/21 01:17:55;;;;;;;12.07;5.82;;;;;;;;;;5095804;28;20539;-61
2021/05/21 01:20:21;;;;;;;12.43;5.40;;;;;;;;;;5095138;28;20059;-62
2021/05/21 01:22:47;;;;;;;14.55;5.57;;;;;;;;;;5077797;28;20024;-62
2021/05/21 01:25:13;;;;;;;11.57;5.00;;;;;;;;;;5077590;28;20024;-63
2021/05/21 01:27:39;;;;;;;12.00;5.10;;;;;;;;;;5077534;28;20020;-61
2021/05/21 01:30:06;;;;;;;13.05;5.20;;;;;;;;;;5076836;28;20020;-62
2021/05/21 01:32:32;;;;;;;13.30;5.85;;;;;;;;;;5061024;28;20028;-59
2021/05/21 01:34:59;;;;;;;10.70;4.93;;;;;;;;;;5077398;28;20506;-62
2021/05/21 01:37:25;;;;;;;11.15;4.90;;;;;;;;;;5077362;28;20095;-61
2021/05/21 01:39:51;;;;;;;13.57;5.18;;;;;;;;;;5076397;28;20479;-62
2021/05/21 01:42:17;;;;;;;10.93;5.05;;;;;;;;;;5095583;28;20377;-61
2021/05/21 01:44:43;;;;;;;10.65;5.05;;;;;;;;;;5076896;28;20106;-61
2021/05/21 01:47:11;;;;;;;11.93;5.10;;;;;;;;;;5077090;28;20027;-61
2021/05/21 01:49:37;;;;;;;11.57;4.95;;;;;;;;;;5094681;28;20020;-62
2021/05/21 01:52:03;;;;;;;11.20;4.90;;;;;;;;;;5095342;28;20099;-60
2021/05/21 01:54:30;;;;;;;12.98;5.63;;;;;;;;;;5077106;28;20039;-61
2021/05/21 01:56:57;;;;;;;12.45;5.60;;;;;;;;;;5095220;28;20024;-62
2021/05/21 01:59:23;;;;;;;12.32;5.10;;;;;;;;;;5076369;28;20081;-62
2021/05/21 02:01:50;;;;;;;10.50;4.60;;;;;;;;;;5095386;28;20030;-62
2021/05/21 02:04:16;;;;;;;11.65;4.78;;;;;;;;;;5077244;28;20028;-61
2021/05/21 02:06:42;;;;;;;11.20;4.80;;;;;;;;;;5077217;28;20446;-62
2021/05/21 02:09:10;;;;;;;13.43;4.82;;;;;;;;;;5093595;28;20460;-62
2021/05/21 02:11:36;;;;;;;13.80;4.90;;;;;;;;;;5094896;28;20022;-62
2021/05/21 02:14:03;;;;;;;13.60;4.97;;;;;;;;;;5094865;28;20085;-62
2021/05/21 02:16:29;;;;;;;11.93;4.88;;;;;;;;;;5095072;28;20066;-61
2021/05/21 02:18:55;;;;;;;10.20;4.60;;;;;;;;;;5076380;28;20096;-62
2021/05/21 02:21:24;;;;;;;13.65;4.90;;;;;;;;;;5077277;28;20035;-62
2021/05/21 02:23:50;;;;;;;;;;;;;;;;;;5095317;28;20028;-62
2021/05/21 02:26:18;;;;;;;12.75;4.70;;;;;;;;;;5094845;28;19908;-62
2021/05/21 02:28:44;;;;;;;10.25;4.60;;;;;;;;;;5094156;28;20024;-62
2021/05/21 02:31:10;;;;;;;10.75;4.78;;;;;;;;;;5094647;28;20361;-61
2021/05/21 02:33:36;;;;;;;12.18;5.05;;;;;;;;;;5094743;28;20020;-61
2021/05/21 02:36:02;;;;;;;10.32;4.80;;;;;;;;;;5076269;28;20533;-63
2021/05/21 02:38:28;;;;;;;10.23;4.85;;;;;;;;;;5076215;28;20028;-62
2021/05/21 02:40:54;;;;;;;11.25;4.57;;;;;;;;;;5075460;28;20186;-62
2021/05/21 02:43:20;;;;;;;11.68;5.10;;;;;;;;;;5076021;28;20020;-62
2021/05/21 02:45:46;;;;;;;13.05;5.45;;;;;;;;;;5076046;28;20028;-58
2021/05/21 02:48:12;;;;;;;10.98;4.70;;;;;;;;;;5075766;28;20026;-62
2021/05/21 02:50:39;;;;;;;12.55;5.18;;;;;;;;;;5075193;28;20027;-62
2021/05/21 02:53:06;;;;;;;10.98;4.90;;;;;;;;;;5094688;28;20046;-62
2021/05/21 02:55:32;;;;;;;9.88;4.68;;;;;;;;;;5075685;28;20019;-62
2021/05/21 02:57:58;;;;;;;11.20;4.95;;;;;;;;;;5075827;28;20031;-62
2021/05/21 03:00:24;;;;;;;11.75;4.88;;;;;;;;;;5074852;28;20122;-62
2021/05/21 03:02:50;;;;;;;12.07;5.05;;;;;;;;;;5075960;28;20123;-62
2021/05/21 03:05:21;;;;;;;10.45;4.80;;;;;;;;;;5093815;28;20074;-61
2021/05/21 03:07:51;;;;;;;10.60;4.97;;;;;;;;;;5093685;28;20048;-61
2021/05/21 03:10:17;;;;;;;13.27;5.25;;;;;;;;;;5093084;28;20031;-62
2021/05/21 03:12:42;;;;;;;12.25;5.13;;;;;;;;;;5075406;28;20047;-62
2021/05/21 03:15:09;;;;;;;14.25;5.57;;;;;;;;;;5075778;28;20119;-62
2021/05/21 03:17:35;;;;;;;10.57;5.15;;;;;;;;;;5093769;28;20024;-63
2021/05/21 03:20:01;;;;;;;13.65;6.07;;;;;;;;;;5075114;28;20094;-62
2021/05/21 03:22:27;;;;;;;12.95;5.50;;;;;;;;;;5093702;28;20722;-62
2021/05/21 03:24:53;;;;;;;13.02;5.18;;;;;;;;;;5074890;28;20100;-62
2021/05/21 03:27:19;;;;;;;12.70;5.28;;;;;;;;;;5074936;28;20387;-62
2021/05/21 03:29:45;;;;;;;13.75;5.35;;;;;;;;;;5092657;28;20042;-62
2021/05/21 03:32:12;;;;;;;13.05;5.57;;;;;;;;;;5075151;28;20020;-62
2021/05/21 03:34:39;;;;;;;12.70;5.43;;;;;;;;;;5092967;28;20024;-62
2021/05/21 03:37:05;;;;;;;12.90;5.13;;;;;;;;;;5074808;28;20030;-62
2021/05/21 03:39:31;;;;;;;13.18;5.00;;;;;;;;;;5074242;28;20459;-63
2021/05/21 03:41:57;;;;;;;11.88;5.05;;;;;;;;;;5092937;28;20052;-62
2021/05/21 03:44:23;;;;;;;14.52;6.15;;;;;;;;;;5074764;28;20446;-62
2021/05/21 03:46:49;;;;;;;13.68;5.32;;;;;;;;;;5092554;28;20031;-63
2021/05/21 03:49:16;;;;;;;11.10;5.10;;;;;;;;;;5073556;28;20020;-62
2021/05/21 03:51:42;;;;;;;13.27;5.20;;;;;;;;;;5092354;28;20020;-62
2021/05/21 03:54:08;;;;;;;13.07;5.00;;;;;;;;;;5092520;28;20063;-62
2021/05/21 03:56:34;;;;;;;11.63;5.55;;;;;;;;;;5092817;28;20024;-61
2021/05/21 03:59:01;;;;;;;11.85;5.18;;;;;;;;;;5073587;28;20028;-62
2021/05/21 04:03:57;;;;;;;13.85;4.95;;;;;;;;;;5026466;28;19921;-64
2021/05/21 04:06:23;;;;;;;15.48;5.60;;;;;;;;;;5031150;28;20116;-64
2021/05/21 04:08:49;;;;;;;12.65;5.05;;;;;;;;;;5031243;28;20053;-60
2021/05/21 04:11:15;;;;;;;12.93;5.50;;;;;;;;;;5032319;28;20033;-63
2021/05/21 04:13:41;;;;;;;12.73;5.50;;;;;;;;;;5030734;28;20025;-62
2021/05/21 04:16:07;;;;;;;12.43;5.50;;;;;;;;;;5066523;22;20045;-62
2021/05/21 04:18:33;;;;;;;11.98;4.90;;;;;;;;;;5053176;28;20391;-62
2021/05/21 04:20:59;;;;;;;16.45;5.30;;;;;;;;;;5054271;28;20020;-61
2021/05/21 04:23:25;;;;;;;10.82;5.00;;;;;;;;;;5054512;28;20042;-63
2021/05/21 04:25:51;;;;;;;13.02;5.80;;;;;;;;;;5072280;28;20099;-62
2021/05/21 04:28:17;;;;;;;12.10;5.13;;;;;;;;;;5054455;28;20031;-61
2021/05/21 04:30:43;;;;;;;13.05;5.57;;;;;;;;;;5054106;28;20036;-61
2021/05/21 04:33:09;;;;;;;12.50;5.28;;;;;;;;;;5072447;28;20410;-62
2021/05/21 04:35:35;;;;;;;13.98;5.15;;;;;;;;;;5071931;28;20063;-62
2021/05/21 04:38:01;;;;;;;16.45;5.68;;;;;;;;;;5054228;28;20033;-63
2021/05/21 04:40:27;;;;;;;13.73;5.70;;;;;;;;;;5054296;28;20033;-62
2021/05/21 04:42:53;;;;;;;12.32;5.43;;;;;;;;;;5072374;28;20122;-61
2021/05/21 04:45:19;;;;;;;12.82;5.70;;;;;;;;;;5054130;28;20151;-64
2021/05/21 04:47:45;;;;;;;14.85;6.40;;;;;;;;;;5072278;28;20039;-62
2021/05/21 04:50:11;;;;;;;14.30;5.75;;;;;;;;;;5054012;28;20028;-62
2021/05/21 04:52:38;;;;;;;13.63;5.03;;;;;;;;;;5071944;28;20030;-62
2021/05/21 04:55:04;;;;;;;11.68;4.88;;;;;;;;;;5071873;28;20033;-63
2021/05/21 04:57:30;;;;;;;12.32;4.88;;;;;;;;;;5053943;28;20027;-62
2021/05/21 04:59:56;;;;;;;12.90;6.10;;;;;;;;;;5053543;28;20123;-62
2021/05/21 05:02:22;;;;;;;21.98;5.68;;;;;;;;;;5071453;28;20081;-63
2021/05/21 05:04:48;;;;;;;11.65;5.03;;;;;;;;;;5071519;28;20048;-63
2021/05/21 05:07:14;;;;;;;11.20;5.00;;;;;;;;;;5053805;28;20040;-61
2021/05/21 05:09:40;;;;;;;12.48;5.00;;;;;;;;;;5053845;28;20020;-63
2021/05/21 05:12:07;;;;;;;12.60;5.47;;;;;;;;;;5053544;28;20055;-63
2021/05/21 05:14:33;;;;;;;12.32;5.32;;;;;;;;;;5053675;28;20327;-63
2021/05/21 05:16:58;;;;;;;14.45;5.57;;;;;;;;;;5053459;28;20178;-59
2021/05/21 05:19:24;;;;;;;12.02;5.65;;;;;;;;;;5071879;28;20040;-63
2021/05/21 05:21:50;;;;;;;16.75;5.50;;;;;;;;;;5071545;28;20099;-63
2021/05/21 05:24:21;;;;;;;10.60;4.85;;;;;;;;;;5053785;28;20028;-62
2021/05/21 05:26:48;;;;;;;14.52;5.10;;;;;;;;;;5071408;28;20029;-61
2021/05/21 05:29:14;;;;;;;12.70;5.30;;;;;;;;;;5071476;28;20031;-62
2021/05/21 05:31:40;;;;;;;13.00;5.15;;;;;;;;;;5053627;28;20476;-60
2021/05/21 05:34:06;;;;;;;14.15;6.03;;;;;;;;;;5071872;28;20044;-60
2021/05/21 05:36:32;;;;;;;12.82;6.30;;;;;;;;;;5071771;28;20031;-62
2021/05/21 05:38:59;;;;;;;12.35;5.10;;;;;;;;;;5053869;28;20025;-63
2021/05/21 05:41:25;;;;;;;14.43;5.60;;;;;;;;;;5071801;28;20032;-62
2021/05/21 05:43:51;;;;;;;14.25;5.60;;;;;;;;;;5073157;28;20036;-63
2021/05/21 05:46:17;;;;;;;15.15;5.55;;;;;;;;;;5057384;28;20115;-62
2021/05/21 05:48:43;;;;;;;15.10;5.50;;;;;;;;;;5056969;28;20119;-61
2021/05/21 05:51:09;;;;;;;14.77;5.68;;;;;;;;;;5074877;28;20063;-58
2021/05/21 05:53:36;;;;;;;13.93;5.78;;;;;;;;;;5074886;28;20583;-63
2021/05/21 05:56:03;;;;;;;13.18;5.90;;;;;;;;;;5074865;28;20025;-63
2021/05/21 05:58:29;;;;;;;15.52;5.45;;;;;;;;;;5057246;28;20027;-63
2021/05/21 06:00:55;;;;;;;12.90;5.43;;;;;;;;;;5056676;28;20043;-63
2021/05/21 06:03:21;;;;;;;12.77;5.50;;;;;;;;;;5074915;28;20076;-62
2021/05/21 06:05:47;;;;;;;15.02;5.55;;;;;;;;;;5074557;28;20051;-62
2021/05/21 06:08:13;;;;;;;15.00;5.68;;;;;;;;;;5057058;28;20025;-63
2021/05/21 06:10:40;;;;;;;13.73;5.30;;;;;;;;;;5056746;28;20020;-61
2021/05/21 06:13:09;;;;;;;14.02;5.40;;;;;;;;;;5074323;28;20035;-63
2021/05/21 06:15:37;;;;;;;15.10;5.40;;;;;;;;;;5074364;28;20036;-64
2021/05/21 06:18:03;;;;;;;11.35;4.93;;;;;;;;;;5074632;28;20360;-64
2021/05/21 06:20:30;;;;;;;16.77;5.28;;;;;;;;;;5074490;28;20398;-62
2021/05/21 06:22:57;;;;;;;16.20;5.57;;;;;;;;;;5074143;28;20070;-62
2021/05/21 06:25:28;;;;;;;15.73;5.18;;;;;;;;;;5056745;28;20033;-62
2021/05/21 06:27:54;;;;;;;15.38;5.10;;;;;;;;;;5056909;28;20020;-63
2021/05/21 06:30:20;;;;;;;18.27;5.43;;;;;;;;;;5074325;28;20107;-62
2021/05/21 06:32:48;;;;;;;16.73;5.30;;;;;;;;;;5055992;28;20073;-62
2021/05/21 06:35:14;;;;;;;13.73;5.25;;;;;;;;;;5072253;28;21207;-63
2021/05/21 06:37:40;;;;;;;15.80;5.35;;;;;;;;;;5065384;28;20032;-62
2021/05/21 06:40:06;;;;;;;19.77;6.35;;;;;;;;;;5047800;28;20029;-62
2021/05/21 06:42:32;;;;;;;13.63;4.93;;;;;;;;;;5052939;28;20086;-62
2021/05/21 06:44:58;;;;;;;17.17;5.18;;;;;;;;;;5048739;28;20025;-63
2021/05/21 06:47:25;;;;;;;18.65;5.32;;;;;;;;;;5073737;28;20032;-62
2021/05/21 06:49:51;;;;;;;14.77;5.22;;;;;;;;;;5073794;28;20024;-63
2021/05/21 06:52:17;;;;;;;14.98;5.50;;;;;;;;;;5052487;28;20890;-62
2021/05/21 06:54:46;;;;;;;13.35;4.82;;;;;;;;;;5035467;28;20061;-63
2021/05/21 06:57:12;;;;;;;12.93;4.90;;;;;;;;;;5035643;28;20033;-61
2021/05/21 06:59:38;;;;;;;13.85;5.00;;;;;;;;;;5053650;28;20036;-63
2021/05/21 07:02:04;;;;;;;13.57;5.40;;;;;;;;;;5035701;28;20082;-63
2021/05/21 07:04:30;;;;;;;13.68;5.30;;;;;;;;;;5035809;28;20032;-61
2021/05/21 07:06:56;;;;;;;14.52;5.28;;;;;;;;;;5053193;28;20035;-62
2021/05/21 07:09:24;;;;;;;14.05;5.40;;;;;;;;;;5038408;28;20472;-62
2021/05/21 07:11:50;;;;;;;12.90;5.40;;;;;;;;;;5073109;28;20024;-63
2021/05/21 07:14:16;;;;;;;13.05;5.32;;;;;;;;;;5055227;28;20090;-62
2021/05/21 07:16:42;;;;;;;14.95;5.13;;;;;;;;;;5054980;28;20082;-62
2021/05/21 07:19:13;;;;;;;14.68;5.72;;;;;;;;;;5055321;28;20025;-63
2021/05/21 07:21:39;;;;;;;16.00;5.90;;;;;;;;;;5073174;28;20104;-62
2021/05/21 07:24:05;;;;;;;17.52;6.30;;;;;;;;;;5054800;28;20052;-62
2021/05/21 07:26:31;;;;;;;14.13;5.10;;;;;;;;;;5073432;28;20028;-61
2021/05/21 07:28:58;;;;;;;17.42;7.32;;;;;;;;;;5054894;28;20487;-63
2021/05/21 07:31:26;;;;;;;15.77;5.63;;;;;;;;;;5055360;28;20208;-62
2021/05/21 07:33:52;;;;;;;14.80;5.70;;;;;;;;;;5054680;28;20023;-60
2021/05/21 07:36:18;;;;;;;14.95;6.25;;;;;;;;;;5072762;28;20021;-62
2021/05/21 07:38:44;;;;;;;14.65;5.60;;;;;;;;;;5054706;28;20209;-62
2021/05/21 07:41:10;;;;;;;16.52;6.00;;;;;;;;;;5072760;28;20490;-60
2021/05/21 07:43:36;;;;;;;17.63;6.20;;;;;;;;;;5054631;28;20036;-63
2021/05/21 07:46:02;;;;;;;17.38;5.82;;;;;;;;;;5054359;28;20483;-63
2021/05/21 07:48:28;;;;;;;16.08;6.25;;;;;;;;;;5072341;28;20098;-63
2021/05/21 07:50:55;;;;;;;20.27;7.40;;;;;;;;;;5072883;28;20048;-62
2021/05/21 07:53:21;;;;;;;19.00;6.63;;;;;;;;;;5054096;28;20490;-64
2021/05/21 07:55:48;;;;;;;16.45;6.40;;;;;;;;;;5071932;28;20376;-63
2021/05/21 07:58:14;;;;;;;15.23;5.97;;;;;;;;;;5072125;28;20058;-59
2021/05/21 08:00:41;;;;;;;15.45;6.32;;;;;;;;;;5054309;28;20479;-64
2021/05/21 08:03:07;;;;;;;16.90;5.72;;;;;;;;;;5072458;28;20112;-66
2021/05/21 08:05:34;;;;;;;17.63;6.07;;;;;;;;;;5053424;28;20067;-65
2021/05/21 08:08:00;;;;;;;15.00;5.70;;;;;;;;;;5072037;28;20025;-63
2021/05/21 08:10:26;;;;;;;13.75;5.88;;;;;;;;;;5072336;28;20603;-63
2021/05/21 08:12:52;;;;;;;16.02;6.32;;;;;;;;;;5054257;28;20038;-64
2021/05/21 08:15:18;;;;;;;15.45;5.88;;;;;;;;;;5072074;28;20097;-63
2021/05/21 08:17:43;;;;;;;16.40;6.25;;;;;;;;;;5072460;28;20375;-63
2021/05/21 08:20:10;;;;;;;18.38;6.32;;;;;;;;;;5072351;28;20028;-63
2021/05/21 08:22:36;;;;;;;15.25;6.35;;;;;;;;;;5071671;28;20052;-57
2021/05/21 08:25:04;;;;;;;18.08;6.55;;;;;;;;;;5053868;28;20476;-62
2021/05/21 08:27:30;;;;;;;14.10;6.00;;;;;;;;;;5072270;28;20094;-62
2021/05/21 08:29:56;;;;;;;17.73;6.43;;;;;;;;;;5054547;28;20495;-63
2021/05/21 08:32:22;;;;;;;17.48;5.82;;;;;;;;;;5053829;28;20029;-62
2021/05/21 08:34:48;;;;;;;15.18;5.70;;;;;;;;;;5071532;28;20031;-63
2021/05/21 08:37:14;;;;;;;16.30;5.90;;;;;;;;;;5053547;28;20400;-61
2021/05/21 08:39:40;;;;;;;17.30;6.05;;;;;;;;;;5071731;28;20024;-62
2021/05/21 08:42:07;;;;;;;18.73;6.22;;;;;;;;;;5053608;28;20025;-62
2021/05/21 08:44:34;;;;;;;15.40;6.40;;;;;;;;;;5053857;28;20017;-61
2021/05/21 08:47:00;;;;;;;18.55;6.72;;;;;;;;;;5071550;28;20048;-61
2021/05/21 08:49:26;;;;;;;16.02;6.30;;;;;;;;;;5071552;28;20134;-61
2021/05/21 08:51:52;;;;;;;16.58;6.05;;;;;;;;;;5071536;28;20045;-63
2021/05/21 08:54:18;;;;;;;19.20;6.55;;;;;;;;;;5053506;28;20531;-62
2021/05/21 08:56:45;;;;;;;15.23;5.72;;;;;;;;;;5071733;28;20135;-64
2021/05/21 08:59:11;;;;;;;18.75;5.95;;;;;;;;;;5071420;28;20111;-62
2021/05/21 09:01:51;;;;;;;19.02;6.38;;;;;;;;;;5053243;28;20545;-64
2021/05/21 09:04:17;;;;;;;16.58;5.97;;;;;;;;;;5053290;28;20423;-61
2021/05/21 09:06:43;;;;;;;17.55;6.68;;;;;;;;;;5071471;28;20080;-62
2021/05/21 09:09:12;;;;;;;13.75;6.20;;;;;;;;;;5071450;28;20472;-63
2021/05/21 09:11:41;;;;;;;16.50;6.43;;;;;;;;;;5053501;28;20025;-62
2021/05/21 09:14:21;;;;;;;18.85;6.63;;;;;;;;;;5071240;28;20392;-61
2021/05/21 09:16:49;;;;;;;18.52;5.70;;;;;;;;;;5071585;28;20119;-61
2021/05/21 09:19:15;;;;;;;18.30;6.80;;;;;;;;;;5075202;28;20499;-61
2021/05/21 09:21:52;;;;;;;19.42;7.25;;;;;;;;;;5075167;28;20062;-61
2021/05/21 09:24:19;;;;;;;17.25;5.90;;;;;;;;;;5074995;28;20028;-62
2021/05/21 09:26:47;;;;;;;17.27;5.80;;;;;;;;;;5057291;28;20025;-63
2021/05/21 09:29:17;;;;;;;17.95;6.25;;;;;;;;;;5074884;28;20021;-62
2021/05/21 09:31:44;;;;;;;18.83;6.28;;;;;;;;;;5074777;28;20388;-61
2021/05/21 09:34:11;;;;;;;18.35;6.15;;;;;;;;;;5075105;28;20020;-63
2021/05/21 09:36:38;;;;;;;18.65;7.18;;;;;;;;;;5056948;28;20115;-63
2021/05/21 09:39:07;;;;;;;15.53;6.00;;;;;;;;;;5057183;28;20032;-63
2021/05/21 09:41:44;;;;;;;16.10;5.72;;;;;;;;;;5056828;28;20036;-64
2021/05/21 09:44:10;;;;;;;18.83;6.10;;;;;;;;;;5074901;28;20051;-64
2021/05/21 09:46:40;;;;;;;19.42;6.68;;;;;;;;;;5056991;28;20016;-64
2021/05/21 09:49:25;;;;;;;19.85;6.60;;;;;;;;;;5057077;28;20017;-63
2021/05/21 09:51:54;;;;;;;19.42;7.25;;;;;;;;;;5056674;28;20048;-57
2021/05/21 09:54:20;;;;;;;20.05;6.93;;;;;;;;;;5074615;28;20028;-56
2021/05/21 09:57:05;;;;;;;19.33;7.00;;;;;;;;;;5074603;28;20077;-60
2021/05/21 09:59:42;;;;;;;18.15;7.20;;;;;;;;;;5056467;28;20032;-56
2021/05/21 10:02:18;;;;;;;18.60;6.72;;;;;;;;;;5074484;28;20404;-56
2021/05/21 10:04:45;;;;;;;18.85;7.85;;;;;;;;;;5074262;28;20027;-58
2021/05/21 10:07:11;;;;;;;18.75;7.00;;;;;;;;;;5056502;28;20070;-58
2021/05/21 10:09:37;;;;;;;16.33;7.10;;;;;;;;;;5074341;28;20104;-57
2021/05/21 10:12:04;;;;;;;14.88;6.80;;;;;;;;;;5056469;28;20448;-59
2021/05/21 10:14:32;;;;;;;20.55;7.78;;;;;;;;;;5072602;28;20063;-59
2021/05/21 10:16:59;;;;;;;20.30;8.68;;;;;;;;;;5075461;22;20053;-59
2021/05/21 10:19:26;;;;;;;21.27;9.38;;;;;;;;;;5052748;28;20642;-57
2021/05/21 10:21:52;;;;;;;18.35;9.23;;;;;;;;;;5053666;28;20110;-60
2021/05/21 10:24:20;;;;;;;18.50;9.20;;;;;;;;;;5053719;28;20033;-60
2021/05/21 10:26:49;;;;;;;16.30;9.70;;;;;;;;;;5053967;28;20025;-56
2021/05/21 10:29:19;;;;;;;17.35;9.85;;;;;;;;;;5052987;28;20059;-60
2021/05/21 10:31:45;;;;;;;19.42;10.13;;;;;;;;;;5053345;28;20049;-60
2021/05/21 10:34:15;;;;;;;19.58;9.55;;;;;;;;;;5053991;28;20493;-59
2021/05/21 10:36:42;;;;;;;20.52;10.07;;;;;;;;;;5028398;28;20304;-60
2021/05/21 10:39:19;;;;;;;18.75;9.57;;;;;;;;;;5034152;28;20441;-57
2021/05/21 10:41:50;;;;;;;18.15;9.77;;;;;;;;;;5015216;28;20025;-60
2021/05/21 10:44:20;;;;;;;19.77;8.60;;;;;;;;;;5034334;28;20112;-61
2021/05/21 10:46:48;;;;;;;35.03;9.85;;;;;;;;;;5015720;28;20055;-55
2021/05/21 10:49:25;;;;;;;23.30;8.63;;;;;;;;;;5032719;28;20068;-56
2021/05/21 10:51:55;;;;;;;21.52;9.43;;;;;;;;;;5032028;28;20021;-62
2021/05/21 10:54:25;;;;;;;21.90;9.48;;;;;;;;;;5032389;28;20437;-60
2021/05/21 10:56:51;;;;;;;22.48;9.95;;;;;;;;;;5033153;28;20026;-59
2021/05/21 10:59:17;;;;;;;18.83;8.75;;;;;;;;;;5033121;28;20061;-61
2021/05/21 11:01:46;;;;;;;22.67;9.35;;;;;;;;;;5032854;28;20033;-58
2021/05/21 11:04:13;;;;;;;19.60;9.18;;;;;;;;;;5032992;28;20096;-58
2021/05/21 11:06:49;;;;;;;16.92;10.77;;;;;;;;;;5033062;28;20085;-60
2021/05/21 11:09:17;;;;;;;18.75;10.13;;;;;;;;;;5032970;28;20033;-56
2021/05/21 11:11:51;;;;;;;19.02;10.30;;;;;;;;;;5033217;28;20024;-59
2021/05/21 11:14:29;;;;;;;20.85;10.23;;;;;;;;;;5033063;28;20049;-61
2021/05/21 11:16:59;;;;;;;18.92;9.88;;;;;;;;;;5032606;28;20034;-59
2021/05/21 11:19:27;;;;;;;19.75;10.10;;;;;;;;;;5033002;28;20033;-59
2021/05/21 11:22:13;;;;;;;20.08;10.45;;;;;;;;;;5014119;28;20034;-57
2021/05/21 11:24:40;;;;;;;19.58;10.13;;;;;;;;;;5014467;28;20068;-60
2021/05/21 11:27:07;;;;;;;15.98;9.77;;;;;;;;;;5032317;28;20017;-53
2021/05/21 11:29:35;;;;;;;22.33;11.00;;;;;;;;;;5015097;28;20438;-57
2021/05/21 11:32:01;;;;;;;20.08;11.43;;;;;;;;;;5032804;28;20025;-62
2021/05/21 11:34:28;;;;;;;19.83;10.23;;;;;;;;;;5032516;28;20036;-58
2021/05/21 11:36:56;;;;;;;23.20;10.45;;;;;;;;;;5032195;28;20033;-62
2021/05/21 11:39:24;;;;;;;21.17;10.70;;;;;;;;;;5032260;28;20034;-59
2021/05/21 11:41:50;;;;;;;20.10;10.35;;;;;;;;;;5031081;28;20294;-57
2021/05/21 11:44:17;;;;;;;21.38;11.00;;;;;;;;;;5032357;28;20033;-59
2021/05/21 11:46:45;;;;;;;22.38;13.18;;;;;;;;;;5032224;28;20021;-61
2021/05/21 11:49:18;;;;;;;18.08;10.43;;;;;;;;;;5032195;28;20037;-59
2021/05/21 11:51:44;;;;;;;21.50;10.02;;;;;;;;;;5030952;28;20117;-57
2021/05/21 11:54:10;;;;;;;19.98;10.07;;;;;;;;;;5032003;28;20366;-60
2021/05/21 11:56:37;;;;;;;18.75;9.88;;;;;;;;;;5014115;28;20029;-60
2021/05/21 11:59:06;;;;;;;19.80;9.77;;;;;;;;;;5014518;28;20108;-61
2021/05/21 12:01:33;;;;;;;19.73;10.20;;;;;;;;;;5032328;28;20088;-60
2021/05/21 12:04:06;;;;;;;22.00;11.15;;;;;;;;;;5014525;28;20033;-61
2021/05/21 12:06:33;;;;;;;20.65;10.80;;;;;;;;;;5014255;28;20037;-60
2021/05/21 12:08:59;;;;;;;20.00;10.88;;;;;;;;;;5031766;28;20032;-58
2021/05/21 12:11:26;;;;;;;18.88;10.18;;;;;;;;;;5031800;28;20487;-60
2021/05/21 12:13:52;;;;;;;20.45;10.30;;;;;;;;;;5014023;28;20080;-60
2021/05/21 12:16:19;;;;;;;19.88;10.15;;;;;;;;;;5032103;28;20036;-61
2021/05/21 12:18:46;;;;;;;21.80;10.20;;;;;;;;;;5014059;28;20060;-59
2021/05/21 12:21:12;;;;;;;21.60;11.25;;;;;;;;;;5013141;28;20026;-60
2021/05/21 12:23:43;;;;;;;21.38;11.18;;;;;;;;;;5031345;28;20033;-58
2021/05/21 12:26:13;;;;;;;18.00;11.40;;;;;;;;;;5030923;28;20104;-51
2021/05/21 12:28:39;;;;;;;16.95;9.95;;;;;;;;;;5031374;28;20025;-56
2021/05/21 12:31:07;;;;;;;17.38;9.98;;;;;;;;;;5031434;28;20071;-61
2021/05/21 12:33:36;;;;;;;19.00;10.35;;;;;;;;;;5012980;28;20022;-60
2021/05/21 12:36:07;;;;;;;21.65;10.70;;;;;;;;;;5030858;28;20056;-61
2021/05/21 12:38:34;;;;;;;22.23;10.50;;;;;;;;;;5031340;28;20100;-59
2021/05/21 12:41:00;;;;;;;17.90;10.90;;;;;;;;;;5031296;28;20473;-54
2021/05/21 12:43:27;;;;;;;17.73;11.43;;;;;;;;;;5031465;28;20393;-57
2021/05/21 12:46:04;;;;;;;18.02;10.75;;;;;;;;;;5031185;28;20401;-60
2021/05/21 12:48:44;;;;;;;20.95;10.48;;;;;;;;;;5030817;28;20027;-57
2021/05/21 12:51:29;;;;;;;16.98;10.13;;;;;;;;;;5013339;28;20040;-56
2021/05/21 12:54:15;;;;;;;18.10;10.10;;;;;;;;;;5034616;28;20025;-54
2021/05/21 12:56:41;;;;;;;17.58;9.75;;;;;;;;;;5035446;28;20049;-59
2021/05/21 12:59:10;;;;;;;19.15;10.40;;;;;;;;;;5035349;28;20025;-58
2021/05/21 13:01:36;;;;;;;20.48;10.45;;;;;;;;;;5034891;28;20093;-58
2021/05/21 13:04:10;;;;;;;21.00;10.40;;;;;;;;;;5017395;28;20095;-58
2021/05/21 13:06:36;;;;;;;17.70;10.38;;;;;;;;;;5034910;28;20057;-58
2021/05/21 13:09:06;;;;;;;18.02;10.73;;;;;;;;;;5017353;28;20053;-57
2021/05/21 13:11:51;;;;;;;16.30;10.55;;;;;;;;;;5035247;28;20084;-52
2021/05/21 13:14:17;;;;;;;17.85;10.18;;;;;;;;;;5035081;28;20028;-55
2021/05/21 13:16:44;;;;;;;19.42;11.13;;;;;;;;;;5034928;28;20543;-58
2021/05/21 13:19:10;;;;;;;17.65;9.65;;;;;;;;;;5035202;28;20025;-60
2021/05/21 13:21:36;;;;;;;17.88;10.32;;;;;;;;;;5017055;28;20404;-57
2021/05/21 13:24:08;;;;;;;18.95;10.55;;;;;;;;;;5034857;28;20083;-58
2021/05/21 13:26:44;;;;;;;18.60;10.20;;;;;;;;;;5016791;28;20052;-56
2021/05/21 13:29:10;;;;;;;18.30;10.55;;;;;;;;;;5036329;28;20442;-59
2021/05/21 13:31:36;;;;;;;21.52;11.43;;;;;;;;;;5034392;28;20525;-54
2021/05/21 13:34:02;;;;;;;16.38;10.18;;;;;;;;;;5034773;28;20396;-57
2021/05/21 13:36:28;;;;;;;17.48;10.25;;;;;;;;;;5034718;28;20025;-56
2021/05/21 13:38:54;;;;;;;19.25;10.63;;;;;;;;;;5034781;28;20100;-54
2021/05/21 13:41:20;;;;;;;17.83;9.90;;;;;;;;;;5034619;28;20021;-53
2021/05/21 13:43:46;;;;;;;18.45;10.43;;;;;;;;;;5034538;28;20026;-58
2021/05/21 13:46:12;;;;;;;16.33;10.20;;;;;;;;;;5034105;28;20033;-56
2021/05/21 13:48:38;;;;;;;19.75;11.68;;;;;;;;;;5034296;28;20024;-56
2021/05/21 13:51:04;;;;;;;17.70;11.10;;;;;;;;;;5033984;28;20374;-57
2021/05/21 13:53:30;;;;;;;16.92;9.98;;;;;;;;;;5016436;28;20389;-53
2021/05/21 13:55:56;;;;;;;17.65;10.50;;;;;;;;;;5034516;28;20401;-57
2021/05/21 13:58:22;;;;;;;19.00;10.48;;;;;;;;;;5034266;28;20026;-57
2021/05/21 14:00:48;;;;;;;16.70;10.48;;;;;;;;;;5034558;28;20401;-57
2021/05/21 14:03:14;;;;;;;17.50;10.15;;;;;;;;;;5032122;28;20030;-52
2021/05/21 14:05:40;;;;;;;19.27;10.50;;;;;;;;;;5015576;28;20029;-57
2021/05/21 14:08:06;;;;;;;22.05;10.63;;;;;;;;;;5034187;28;20508;-57
2021/05/21 14:10:32;;;;;;;16.98;10.88;;;;;;;;;;5034088;28;20138;-57
2021/05/21 14:12:58;;;;;;;16.00;9.63;;;;;;;;;;5044023;28;20469;-58
2021/05/21 14:15:24;;;;;;;18.25;10.20;;;;;;;;;;5041348;28;20061;-57
2021/05/21 14:17:49;;;;;;;17.17;10.32;;;;;;;;;;5026069;28;20588;-58
2021/05/21 14:20:17;;;;;;;18.67;10.10;;;;;;;;;;5042026;28;20105;-55
2021/05/21 14:22:43;;;;;;;18.08;10.20;;;;;;;;;;5043475;28;20071;-58
2021/05/21 14:25:11;;;;;;;17.83;10.20;;;;;;;;;;5026028;28;20029;-57
2021/05/21 14:27:38;;;;;;;16.95;10.02;;;;;;;;;;5044599;28;20496;-60
2021/05/21 14:30:04;;;;;;;17.33;9.73;;;;;;;;;;5043567;28;20489;-54
2021/05/21 14:32:31;;;;;;;17.42;10.30;;;;;;;;;;5042932;28;20106;-52